Hlavní strana
METAR-TAF:

METAR-TAF

Letiště :

Haugesund, Norsko

zeměpisná šířka: 59-21N, zeměpisná délka: 005-13E, výška: 2 m

Aktuální stav počasí

Zpráva byla vytvořena před 38 minutami, v 07:50 UTC
Jihozápadní vítr 6 kt
Teplota 10°C
Vlhkost vzduchu 87%
Tlak 1010 hPa
Viditelnost: 9000 m
Oblačno až skoro zataženo ve výšce 7200 ft
slabé mrholení

METAR: ENHD 260750Z 23006KT 9000 -DZ BKN072 10/08 Q1010

Čas: 10:28 (08:28 UTC)

Předpověď počasí

Zpráva byla vytvořena před 3 hodinami a 28 minutami, v 05:00 UTC
Předpověď platná od 26 v 06 UTC do 26 v 15 UTC
Východní vítr 8 kt
Viditelnost 10 km a více
Polojasno ve výšce 3000 ft
Oblačno až skoro zataženo ve výšce 6000 ft

TAF: ENHD 260500Z 2606/2615 10008KT 9999 SCT030 BKN060

Stav a předpovědi počasí z více než 4 000 letišť (zprávy METAR a TAF).

Červené a žluté tečky na mapě představují dostupné meteorologické stanice.

Když kurzor umístíte na tečku, zobrazí se název stanice.

Pak kliknutím zobrazíte stav a předpověď počasí.

Chcete-li změnit mapu, kliknutím na zelené tlačítko se znaménkem +mapu přiblížíte, kliknutím na zelené tlačítko se znaménkem – mapu oddálíte a kliknutím na zelené šipky přejdete na sousední mapy.


METAR-TAF: